Nashville, TN

5:06 PM CST on November 26, 2014 (GMT -0600)
Nashville International | Change Station
CLOSE
Current Station
Airport
Location: Nashville,
Elevation: 597 ft
Nearby Weather Stations
Active Advisory: Special Statement

Elev 597 ft 36.12 °N, 86.69 °W | Updated 13 minutes ago

Overcast
Overcast
48 °F
Feels Like 48 °F
N
9
Wind Variable Wind from SSE

Today
High -- | Low -- °F
--% Chance of Precip.
Yesterday
High -- | Low -- °F
Precip. -- in
6:34 AM 4:33 PM
Waxing Crescent, 23% visible
Pressure 29.99 in
Visibility 10.0 miles
Clouds Mostly Cloudy 5500 ft
Overcast 8000 ft
Dew Point 26 °F
Humidity 42%
Rainfall 0.00 in
Snow Depth Not available.
UV 0 out of 12
Pollen .10 out of 12
Air Quality Not available.
Flu Activity Not available.
METAR KBNA 262253Z 15008KT 10SM BKN055 OVC080 09/M03 A2998 RMK AO2 SLP154 T00891033

More Conditions Fewer Conditions

Pressure 29.99 in
Visibility 10.0 miles
Clouds Mostly Cloudy 5500 ft
Overcast 8000 ft
Dew Point 26 °F
Humidity 42%
Rainfall 0.00 in
Snow Depth Not available.
UV 0 out of 12
Pollen .10 out of 12
Air Quality Not available.
Flu Activity Not available.
METAR KBNA 262253Z 15008KT 10SM BKN055 OVC080 09/M03 A2998 RMK AO2 SLP154 T00891033

More Conditions Fewer Conditions

10-Day Weather Forecast

Almanac

Astronomy

Nov. 26, 2014 Rise Set
Actual Time
Civil Twilight
Nautical Twilight
Astronomical Twilight
Moon
Length of Visible Light
Length of Day
Tomorrow will be .
, % of the Moon is Illuminated

Today's Extremes

State Highs State Lows

Community

WunderPhotos

Upload Photos

1,773,913 photos uploaded!

WunderBlogs® & News

Nearby

Air Quality

  Air Quality AQ Index Pollutant
Not available.

Snow Depth

Station Depth Elevation

Earthquake Activity

City Distance Mag. Time & Date
Minimum magnitude displayed is 2.5.

Coastal Water Temperatures

Place Temperature

Nearby Weather Stations